createdAt,value
2023-04-25T00:09:53.123Z,3.60
2023-04-25T00:19:54.859Z,3.95
2023-04-25T00:29:56.489Z,4.90
2023-04-25T00:39:59.299Z,3.90
2023-04-25T00:50:01.069Z,3.92
2023-04-25T01:00:06.261Z,4.60
2023-04-25T01:10:08.820Z,2.63
2023-04-25T01:20:11.736Z,2.65
2023-04-25T01:30:14.501Z,3.47
2023-04-25T01:40:16.799Z,4.95
2023-04-25T01:50:19.862Z,2.90
2023-04-25T02:00:21.941Z,3.25
2023-04-25T02:10:24.015Z,2.80
2023-04-25T02:20:39.285Z,4.13
2023-04-25T02:30:41.372Z,4.50
2023-04-25T02:40:43.175Z,3.55
2023-04-25T02:50:44.935Z,3.33
2023-04-25T03:00:46.653Z,3.42
2023-04-25T03:10:48.853Z,2.70
2023-04-25T03:20:51.696Z,5.10
2023-04-25T03:30:53.484Z,4.45
2023-04-25T03:40:55.344Z,3.42
2023-04-25T03:51:13.746Z,3.38
2023-04-25T04:01:18.859Z,4.88
2023-04-25T04:11:21.581Z,3.72
2023-04-25T04:21:23.502Z,4.53
2023-04-25T04:31:25.849Z,3.28
2023-04-25T04:41:28.003Z,2.17
2023-04-25T04:51:42.241Z,2.72
2023-04-25T05:02:04.173Z,1.95
2023-04-25T05:12:24.583Z,1.90
2023-04-25T05:22:36.946Z,3.10
2023-04-25T05:33:08.178Z,2.63
2023-04-25T05:43:10.025Z,2.00
2023-04-25T05:53:32.598Z,2.28
2023-04-25T06:03:38.275Z,2.60
2023-04-25T06:13:40.638Z,2.57
2023-04-25T06:23:42.889Z,1.77
2023-04-25T06:33:49.420Z,1.83
2023-04-25T06:43:51.553Z,3.03
2023-04-25T06:54:05.240Z,2.65
2023-04-25T07:04:15.502Z,2.13
2023-04-25T07:14:24.001Z,2.88
2023-04-25T07:24:29.113Z,2.80
2023-04-25T07:34:33.133Z,2.72
2023-04-25T07:44:40.206Z,2.90
2023-04-25T07:54:44.068Z,4.38
2023-04-25T08:04:52.645Z,3.13
2023-04-25T08:14:55.956Z,5.03
2023-04-25T08:25:00.875Z,3.92
2023-04-25T08:35:02.886Z,4.30
2023-04-25T08:45:07.114Z,3.60
2023-04-25T08:55:13.844Z,3.25
2023-04-25T09:05:16.027Z,1.47
2023-04-25T09:15:20.904Z,3.17
2023-04-25T09:25:40.263Z,2.65
2023-04-25T09:35:46.081Z,1.50
2023-04-25T09:46:00.003Z,2.33
2023-04-25T09:56:08.203Z,1.42
2023-04-25T10:06:13.736Z,1.60
2023-04-25T10:16:17.294Z,1.65
2023-04-25T10:26:19.095Z,1.27
2023-04-25T10:36:23.454Z,2.25
2023-04-25T10:56:36.872Z,1.02
2023-04-25T11:07:07.450Z,1.52
2023-04-25T11:17:11.526Z,1.27
2023-04-25T11:27:13.551Z,1.70
2023-04-25T11:37:15.324Z,1.88
2023-04-25T11:47:17.189Z,1.30
2023-04-25T11:57:21.055Z,1.13
2023-04-25T12:07:23.794Z,1.73
2023-04-25T12:17:25.622Z,1.50
2023-04-25T12:27:28.412Z,1.75
2023-04-25T12:37:30.136Z,1.88
2023-04-25T12:47:31.949Z,1.20
2023-04-25T12:57:33.701Z,2.00
2023-04-25T13:07:35.989Z,1.25
2023-04-25T13:17:39.314Z,2.08
2023-04-25T13:27:41.666Z,1.38
2023-04-25T13:37:43.349Z,1.85
2023-04-25T13:47:45.068Z,2.00
2023-04-25T13:57:47.242Z,2.60
2023-04-25T14:07:49.002Z,1.63
2023-04-25T14:17:50.891Z,2.45
2023-04-25T14:27:52.650Z,1.45
2023-04-25T14:37:54.527Z,2.28
2023-04-25T14:47:56.972Z,1.58
2023-04-25T14:57:58.704Z,1.38
2023-04-25T15:08:01.287Z,1.50
2023-04-25T15:18:03.214Z,2.10
2023-04-25T15:28:05.666Z,1.05
2023-04-25T15:38:07.675Z,1.25
2023-04-25T15:48:09.420Z,1.35
2023-04-25T15:58:12.825Z,1.85
2023-04-25T16:08:15.120Z,8.23
2023-04-25T16:18:16.916Z,8.73
2023-04-25T16:28:18.702Z,7.10
2023-04-25T16:38:20.452Z,5.28
2023-04-25T16:48:24.413Z,5.90
2023-04-25T16:58:27.302Z,2.83
2023-04-25T17:08:29.508Z,2.90
2023-04-25T17:18:32.485Z,1.83
2023-04-25T17:28:34.245Z,2.10
2023-04-25T17:38:36.876Z,1.45
2023-04-25T17:48:38.566Z,3.50
2023-04-25T17:58:40.370Z,1.67
2023-04-25T18:08:42.108Z,2.03
2023-04-25T18:18:46.788Z,1.90
2023-04-25T18:28:48.858Z,1.38
2023-04-25T18:38:56.156Z,1.70
2023-04-25T18:49:00.650Z,2.28
2023-04-25T18:59:02.378Z,1.90
2023-04-25T19:09:04.160Z,2.47
2023-04-25T19:19:07.253Z,1.80
2023-04-25T19:29:11.378Z,1.60
2023-04-25T19:39:13.167Z,1.93
2023-04-25T19:49:15.146Z,1.05
2023-04-25T19:59:16.821Z,1.25
2023-04-25T20:09:20.916Z,1.60
2023-04-25T20:19:23.132Z,1.77
2023-04-25T20:29:26.344Z,1.77
2023-04-25T20:39:28.071Z,1.02
2023-04-25T20:49:29.818Z,1.45
2023-04-25T20:59:32.078Z,0.82
2023-04-25T21:09:33.751Z,2.75
2023-04-25T21:19:35.519Z,1.45
2023-04-25T21:29:37.273Z,1.40
2023-04-25T21:39:38.967Z,1.08
2023-04-25T21:49:41.094Z,2.58
2023-04-25T21:59:43.368Z,1.35
2023-04-25T22:09:54.353Z,1.83
2023-04-25T22:19:56.994Z,1.20
2023-04-25T22:29:58.694Z,2.08
2023-04-25T22:40:00.451Z,1.58
2023-04-25T22:50:05.696Z,2.40
2023-04-25T23:00:15.619Z,1.73
2023-04-25T23:10:18.709Z,1.20
2023-04-25T23:20:21.037Z,1.08
2023-04-25T23:30:22.876Z,1.65
2023-04-25T23:40:24.807Z,1.20
2023-04-25T23:50:26.667Z,1.25
